Charter Quote
Worldwide +1-877-727-2538 Call
Select Language Lang
SAFETY RELIABILITY EXPERIENCE

Soroti Airport (HUSO) - Jet Charter Services

AIRPORT INFORMATION
ICAOHUSO
IATASRT
LOCATIONSoroti, Uganda
FACILITY TYPEAIRPORT
Runway Length (ft) Width (ft) Surface Type Elevation (ft)
23/05 6100 98 ASP 3694.59016
27/09 2525 98 GRE 3694.59016

At Paramount Business Jets you can hire chartered private jets to and from Soroti Airport with as little as 4 hours of notice. All flights booked via Paramount Business Jets are operated by certified direct air carriers that meet and exceed the FAA part 135 and 121 protocol or a foreign equivalent safety authority. Furthermore, Paramount Business Jets subscribes to ARGUS for their third party safety checks of operators, aircraft, and crews prior each and every flight to and from Soroti Airport and worldwide.

  • Quote a trip using Soroti Airport or call us 24/7 - 365 days a year at +1-877-727-2538.
Questions? Call +1-877-727-2538

METAR Weather Data at Soroti Airport, HUSO, SRT

STATIONHUSO
OBSERVEDSat Jan 9, 01:00 EST
NOWWed Oct 17, 21:36 EDT
AGE24307:36 hr ago
WINDNNE at 5 mph
VISIBILITY16 miles
CLOUDSmostly cloudy
TEMP73°F (23°C)
DEWPT55°F (13°C)
HUMIDITY53%
BAROMETER1017 hPa (30.03 in Hg)
METARHUSO 090500Z 03004KT 9999 FEW018 BKN100 23/13 Q1017

Call us on +1-877-727-2538 (24 Hours) to Hire a Private Jet or Get a Quick Quote.

Find Airports Near any Location

Processing
...